sensor_id;sensor_type;location;lat;lon;timestamp;pressure;altitude;pressure_sealevel;temperature;humidity
7824;BME280;3957;48.61947800;9.05303100;2023-04-30T00:00:51;96304.47;;;9.41;100.00
7824;BME280;3957;48.61947800;9.05303100;2023-04-30T00:01:52;96295.66;;;9.41;100.00
7824;BME280;3957;48.61947800;9.05303100;2023-04-30T00:02:54;96305.69;;;9.39;100.00
7824;BME280;3957;48.61947800;9.05303100;2023-04-30T00:03:56;96306.69;;;9.38;100.00
7824;BME280;3957;48.61947800;9.05303100;2023-04-30T00:04:58;96306.88;;;9.36;100.00
7824;BME280;3957;48.61947800;9.05303100;2023-04-30T00:05:59;96309.75;;;9.34;100.00
7824;BME280;3957;48.61947800;9.05303100;2023-04-30T00:07:01;96312.81;;;9.31;100.00
7824;BME280;3957;48.61947800;9.05303100;2023-04-30T00:08:03;96309.94;;;9.33;100.00
7824;BME280;3957;48.61947800;9.05303100;2023-04-30T00:09:05;96313.63;;;9.32;100.00
7824;BME280;3957;48.61947800;9.05303100;2023-04-30T00:10:08;96314.66;;;9.31;100.00
7824;BME280;3957;48.61947800;9.05303100;2023-04-30T00:11:10;96311.34;;;9.29;100.00
7824;BME280;3957;48.61947800;9.05303100;2023-04-30T00:12:12;96309.69;;;9.28;100.00
7824;BME280;3957;48.61947800;9.05303100;2023-04-30T00:13:13;96315.03;;;9.28;100.00
7824;BME280;3957;48.61947800;9.05303100;2023-04-30T00:14:15;96311.53;;;9.27;100.00
7824;BME280;3957;48.61947800;9.05303100;2023-04-30T00:15:17;96313.81;;;9.30;100.00
7824;BME280;3957;48.61947800;9.05303100;2023-04-30T00:16:19;96318.53;;;9.28;100.00
7824;BME280;3957;48.61947800;9.05303100;2023-04-30T00:17:20;96318.53;;;9.28;100.00
7824;BME280;3957;48.61947800;9.05303100;2023-04-30T00:18:22;96322.22;;;9.27;100.00
7824;BME280;3957;48.61947800;9.05303100;2023-04-30T00:19:23;96315.41;;;9.25;100.00
7824;BME280;3957;48.61947800;9.05303100;2023-04-30T00:20:25;96314.78;;;9.23;100.00
7824;BME280;3957;48.61947800;9.05303100;2023-04-30T00:21:26;96314.31;;;9.19;100.00
7824;BME280;3957;48.61947800;9.05303100;2023-04-30T00:22:28;96317.19;;;9.17;100.00
7824;BME280;3957;48.61947800;9.05303100;2023-04-30T00:23:29;96317.38;;;9.16;100.00
7824;BME280;3957;48.61947800;9.05303100;2023-04-30T00:24:31;96325.78;;;9.13;100.00
7824;BME280;3957;48.61947800;9.05303100;2023-04-30T00:25:32;96313.44;;;9.12;100.00
7824;BME280;3957;48.61947800;9.05303100;2023-04-30T00:26:34;96313.16;;;9.07;100.00
7824;BME280;3957;48.61947800;9.05303100;2023-04-30T00:27:36;96317.50;;;9.08;100.00
7824;BME280;3957;48.61947800;9.05303100;2023-04-30T00:28:41;96315.44;;;9.10;100.00
7824;BME280;3957;48.61947800;9.05303100;2023-04-30T00:29:43;96317.88;;;9.05;100.00
7824;BME280;3957;48.61947800;9.05303100;2023-04-30T00:30:44;96302.41;;;9.00;100.00
7824;BME280;3957;48.61947800;9.05303100;2023-04-30T00:31:46;96315.88;;;8.92;100.00
7824;BME280;3957;48.61947800;9.05303100;2023-04-30T00:32:48;96311.72;;;8.89;100.00
7824;BME280;3957;48.61947800;9.05303100;2023-04-30T00:33:49;96314.34;;;8.82;100.00
7824;BME280;3957;48.61947800;9.05303100;2023-04-30T00:34:52;96306.69;;;8.79;100.00
7824;BME280;3957;48.61947800;9.05303100;2023-04-30T00:35:53;96315.25;;;8.75;100.00
7824;BME280;3957;48.61947800;9.05303100;2023-04-30T00:36:55;96318.50;;;8.70;100.00
7824;BME280;3957;48.61947800;9.05303100;2023-04-30T00:37:56;96319.22;;;8.64;100.00
7824;BME280;3957;48.61947800;9.05303100;2023-04-30T00:38:58;96313.00;;;8.57;100.00
7824;BME280;3957;48.61947800;9.05303100;2023-04-30T00:40:00;96318.50;;;8.55;100.00
7824;BME280;3957;48.61947800;9.05303100;2023-04-30T00:41:01;96321.91;;;8.49;100.00
7824;BME280;3957;48.61947800;9.05303100;2023-04-30T00:42:03;96320.63;;;8.45;100.00
7824;BME280;3957;48.61947800;9.05303100;2023-04-30T00:43:05;96313.16;;;8.40;100.00
7824;BME280;3957;48.61947800;9.05303100;2023-04-30T00:44:07;96313.16;;;8.40;100.00
7824;BME280;3957;48.61947800;9.05303100;2023-04-30T00:45:09;96317.38;;;8.34;100.00
7824;BME280;3957;48.61947800;9.05303100;2023-04-30T00:46:10;96320.06;;;8.34;100.00
7824;BME280;3957;48.61947800;9.05303100;2023-04-30T00:47:12;96313.72;;;8.36;100.00
7824;BME280;3957;48.61947800;9.05303100;2023-04-30T00:48:15;96312.06;;;8.34;100.00
7824;BME280;3957;48.61947800;9.05303100;2023-04-30T00:49:16;96321.88;;;8.34;100.00
7824;BME280;3957;48.61947800;9.05303100;2023-04-30T00:50:19;96316.00;;;8.39;100.00
7824;BME280;3957;48.61947800;9.05303100;2023-04-30T00:51:20;96319.69;;;8.38;100.00
7824;BME280;3957;48.61947800;9.05303100;2023-04-30T00:52:23;96323.81;;;8.40;100.00
7824;BME280;3957;48.61947800;9.05303100;2023-04-30T00:53:25;96323.28;;;8.45;100.00
7824;BME280;3957;48.61947800;9.05303100;2023-04-30T00:54:27;96320.44;;;8.46;100.00
7824;BME280;3957;48.61947800;9.05303100;2023-04-30T00:55:28;96321.91;;;8.49;100.00
7824;BME280;3957;48.61947800;9.05303100;2023-04-30T00:56:30;96318.91;;;8.52;100.00
7824;BME280;3957;48.61947800;9.05303100;2023-04-30T00:57:33;96322.38;;;8.53;100.00
7824;BME280;3957;48.61947800;9.05303100;2023-04-30T00:58:36;96320.53;;;8.53;100.00
7824;BME280;3957;48.61947800;9.05303100;2023-04-30T00:59:38;96323.84;;;8.55;100.00
7824;BME280;3957;48.61947800;9.05303100;2023-04-30T01:00:40;96321.81;;;8.57;100.00
7824;BME280;3957;48.61947800;9.05303100;2023-04-30T01:01:47;96322.47;;;8.59;100.00
7824;BME280;3957;48.61947800;9.05303100;2023-04-30T01:02:49;96323.28;;;8.60;100.00
7824;BME280;3957;48.61947800;9.05303100;2023-04-30T01:03:51;96323.09;;;8.61;100.00
7824;BME280;3957;48.61947800;9.05303100;2023-04-30T01:04:53;96315.56;;;8.65;100.00
7824;BME280;3957;48.61947800;9.05303100;2023-04-30T01:05:55;96325.03;;;8.67;100.00
7824;BME280;3957;48.61947800;9.05303100;2023-04-30T01:06:57;96325.03;;;8.67;100.00
7824;BME280;3957;48.61947800;9.05303100;2023-04-30T01:07:58;96321.81;;;8.72;100.00
7824;BME280;3957;48.61947800;9.05303100;2023-04-30T01:09:00;96318.31;;;8.72;100.00
7824;BME280;3957;48.61947800;9.05303100;2023-04-30T01:10:02;96317.28;;;8.73;100.00
7824;BME280;3957;48.61947800;9.05303100;2023-04-30T01:13:07;96324.94;;;8.76;100.00
7824;BME280;3957;48.61947800;9.05303100;2023-04-30T01:14:30;96317.56;;;8.78;100.00
7824;BME280;3957;48.61947800;9.05303100;2023-04-30T01:16:28;96318.03;;;8.81;100.00
7824;BME280;3957;48.61947800;9.05303100;2023-04-30T01:17:38;96320.88;;;8.80;100.00
7824;BME280;3957;48.61947800;9.05303100;2023-04-30T01:19:28;96312.22;;;8.78;100.00
7824;BME280;3957;48.61947800;9.05303100;2023-04-30T01:20:14;96306.06;;;8.77;100.00
7824;BME280;3957;48.61947800;9.05303100;2023-04-30T01:21:17;96315.97;;;8.83;100.00
7824;BME280;3957;48.61947800;9.05303100;2023-04-30T01:24:58;96306.88;;;8.78;100.00
7824;BME280;3957;48.61947800;9.05303100;2023-04-30T01:28:49;96317.63;;;8.84;100.00
7824;BME280;3957;48.61947800;9.05303100;2023-04-30T01:29:53;96310.66;;;8.83;100.00
7824;BME280;3957;48.61947800;9.05303100;2023-04-30T01:30:57;96311.69;;;8.82;100.00
7824;BME280;3957;48.61947800;9.05303100;2023-04-30T01:31:59;96310.03;;;8.81;100.00
7824;BME280;3957;48.61947800;9.05303100;2023-04-30T01:33:03;96317.63;;;8.84;100.00
7824;BME280;3957;48.61947800;9.05303100;2023-04-30T01:34:05;96312.31;;;8.84;100.00
7824;BME280;3957;48.61947800;9.05303100;2023-04-30T01:35:06;96307.34;;;8.81;100.00
7824;BME280;3957;48.61947800;9.05303100;2023-04-30T01:36:34;96309.00;;;8.82;100.00
7824;BME280;3957;48.61947800;9.05303100;2023-04-30T01:38:03;96314.50;;;8.81;100.00
7824;BME280;3957;48.61947800;9.05303100;2023-04-30T01:40:42;96307.72;;;8.78;100.00
7824;BME280;3957;48.61947800;9.05303100;2023-04-30T01:41:57;96304.88;;;8.80;100.00
7824;BME280;3957;48.61947800;9.05303100;2023-04-30T01:43:10;96309.56;;;8.78;100.00
7824;BME280;3957;48.61947800;9.05303100;2023-04-30T01:50:34;96318.56;;;8.77;100.00
7824;BME280;3957;48.61947800;9.05303100;2023-04-30T01:51:43;96311.78;;;8.74;100.00
7824;BME280;3957;48.61947800;9.05303100;2023-04-30T01:52:49;96312.69;;;8.81;100.00
7824;BME280;3957;48.61947800;9.05303100;2023-04-30T01:53:56;96311.84;;;8.81;100.00
7824;BME280;3957;48.61947800;9.05303100;2023-04-30T01:55:13;96303.22;;;8.79;100.00
7824;BME280;3957;48.61947800;9.05303100;2023-04-30T01:56:31;96306.50;;;8.81;100.00
7824;BME280;3957;48.61947800;9.05303100;2023-04-30T01:57:42;96306.34;;;8.82;100.00
7824;BME280;3957;48.61947800;9.05303100;2023-04-30T01:58:45;96303.22;;;8.79;100.00
7824;BME280;3957;48.61947800;9.05303100;2023-04-30T01:59:48;96300.53;;;8.79;100.00
7824;BME280;3957;48.61947800;9.05303100;2023-04-30T02:00:50;96309.16;;;8.81;100.00
7824;BME280;3957;48.61947800;9.05303100;2023-04-30T02:01:52;96305.50;;;8.82;100.00
7824;BME280;3957;48.61947800;9.05303100;2023-04-30T02:02:54;96303.84;;;8.81;100.00
7824;BME280;3957;48.61947800;9.05303100;2023-04-30T02:03:56;96305.69;;;8.80;100.00
7824;BME280;3957;48.61947800;9.05303100;2023-04-30T02:04:58;96306.88;;;8.78;100.00
7824;BME280;3957;48.61947800;9.05303100;2023-04-30T02:06:00;96308.34;;;8.80;100.00
7824;BME280;3957;48.61947800;9.05303100;2023-04-30T02:07:02;96311.69;;;8.82;100.00
7824;BME280;3957;48.61947800;9.05303100;2023-04-30T02:08:04;96310.22;;;8.80;100.00
7824;BME280;3957;48.61947800;9.05303100;2023-04-30T02:09:07;96308.94;;;8.76;100.00
7824;BME280;3957;48.61947800;9.05303100;2023-04-30T02:10:09;96307.06;;;8.76;100.00
7824;BME280;3957;48.61947800;9.05303100;2023-04-30T02:11:12;96303.94;;;8.73;100.00
7824;BME280;3957;48.61947800;9.05303100;2023-04-30T02:12:14;96305.78;;;8.72;100.00
7824;BME280;3957;48.61947800;9.05303100;2023-04-30T02:13:15;96304.97;;;8.72;100.00
7824;BME280;3957;48.61947800;9.05303100;2023-04-30T02:14:18;96302.31;;;8.72;100.00
7824;BME280;3957;48.61947800;9.05303100;2023-04-30T02:15:19;96310.31;;;8.72;100.00
7824;BME280;3957;48.61947800;9.05303100;2023-04-30T02:16:21;96308.28;;;8.74;100.00
7824;BME280;3957;48.61947800;9.05303100;2023-04-30T02:17:23;96311.78;;;8.74;100.00
7824;BME280;3957;48.61947800;9.05303100;2023-04-30T02:18:25;96303.59;;;8.76;100.00
7824;BME280;3957;48.61947800;9.05303100;2023-04-30T02:19:26;96305.41;;;8.75;100.00
7824;BME280;3957;48.61947800;9.05303100;2023-04-30T02:20:27;96300.06;;;8.75;100.00
7824;BME280;3957;48.61947800;9.05303100;2023-04-30T02:21:29;96303.22;;;8.79;100.00
7824;BME280;3957;48.61947800;9.05303100;2023-04-30T02:22:31;96298.25;;;8.76;100.00
7824;BME280;3957;48.61947800;9.05303100;2023-04-30T02:23:33;96296.78;;;8.73;100.00
7824;BME280;3957;48.61947800;9.05303100;2023-04-30T02:24:35;96299.84;;;8.70;100.00
7824;BME280;3957;48.61947800;9.05303100;2023-04-30T02:25:36;96301.94;;;8.75;100.00
7824;BME280;3957;48.61947800;9.05303100;2023-04-30T02:26:39;96303.94;;;8.73;100.00
7824;BME280;3957;48.61947800;9.05303100;2023-04-30T02:27:40;96305.16;;;8.70;100.00
7824;BME280;3957;48.61947800;9.05303100;2023-04-30T02:28:43;96303.69;;;8.67;100.00
7824;BME280;3957;48.61947800;9.05303100;2023-04-30T02:29:45;96292.19;;;8.67;100.00
7824;BME280;3957;48.61947800;9.05303100;2023-04-30T02:30:46;96300.00;;;8.68;100.00
7824;BME280;3957;48.61947800;9.05303100;2023-04-30T02:31:50;96300.66;;;8.71;100.00
7824;BME280;3957;48.61947800;9.05303100;2023-04-30T02:32:52;96300.66;;;8.71;100.00
7824;BME280;3957;48.61947800;9.05303100;2023-04-30T02:33:53;96299.38;;;8.66;100.00
7824;BME280;3957;48.61947800;9.05303100;2023-04-30T02:34:55;96296.69;;;8.66;100.00
7824;BME280;3957;48.61947800;9.05303100;2023-04-30T02:35:59;96287.22;;;8.64;100.00
7824;BME280;3957;48.61947800;9.05303100;2023-04-30T02:37:00;96301.56;;;8.63;100.00
7824;BME280;3957;48.61947800;9.05303100;2023-04-30T02:38:03;96295.78;;;8.59;100.00
7824;BME280;3957;48.61947800;9.05303100;2023-04-30T02:39:05;96294.75;;;8.60;100.00
7824;BME280;3957;48.61947800;9.05303100;2023-04-30T02:40:07;96297.44;;;8.60;100.00
7824;BME280;3957;48.61947800;9.05303100;2023-04-30T02:41:09;96295.78;;;8.59;100.00
7824;BME280;3957;48.61947800;9.05303100;2023-04-30T02:42:10;96295.78;;;8.59;100.00
7824;BME280;3957;48.61947800;9.05303100;2023-04-30T02:43:12;96300.47;;;8.57;100.00
7824;BME280;3957;48.61947800;9.05303100;2023-04-30T02:44:14;96292.84;;;8.54;100.00
7824;BME280;3957;48.61947800;9.05303100;2023-04-30T02:45:16;96295.50;;;8.54;100.00
7824;BME280;3957;48.61947800;9.05303100;2023-04-30T02:46:17;96299.19;;;8.53;100.00
7824;BME280;3957;48.61947800;9.05303100;2023-04-30T02:47:19;96296.72;;;8.51;100.00
7824;BME280;3957;48.61947800;9.05303100;2023-04-30T02:48:21;96308.38;;;8.50;100.00
7824;BME280;3957;48.61947800;9.05303100;2023-04-30T02:49:23;96306.44;;;8.44;100.00
7824;BME280;3957;48.61947800;9.05303100;2023-04-30T02:50:25;96306.16;;;8.39;100.00
7824;BME280;3957;48.61947800;9.05303100;2023-04-30T02:51:27;96312.06;;;8.34;100.00
7824;BME280;3957;48.61947800;9.05303100;2023-04-30T02:52:29;96311.31;;;8.41;100.00
7824;BME280;3957;48.61947800;9.05303100;2023-04-30T02:53:30;96309.28;;;8.43;100.00
7824;BME280;3957;48.61947800;9.05303100;2023-04-30T02:54:32;96298.44;;;8.44;100.00
7824;BME280;3957;48.61947800;9.05303100;2023-04-30T02:55:33;96304.44;;;8.46;100.00
7824;BME280;3957;48.61947800;9.05303100;2023-04-30T02:56:35;96308.44;;;8.42;100.00
7824;BME280;3957;48.61947800;9.05303100;2023-04-30T02:57:36;96300.81;;;8.39;100.00
7824;BME280;3957;48.61947800;9.05303100;2023-04-30T02:58:39;96305.63;;;8.44;100.00
7824;BME280;3957;48.61947800;9.05303100;2023-04-30T02:59:41;96306.53;;;8.36;100.00
7824;BME280;3957;48.61947800;9.05303100;2023-04-30T03:00:46;96303.06;;;8.36;100.00
7824;BME280;3957;48.61947800;9.05303100;2023-04-30T03:01:47;96311.88;;;8.36;100.00
7824;BME280;3957;48.61947800;9.05303100;2023-04-30T03:02:49;96309.56;;;8.33;100.00
7824;BME280;3957;48.61947800;9.05303100;2023-04-30T03:03:51;96307.53;;;8.35;100.00
7824;BME280;3957;48.61947800;9.05303100;2023-04-30T03:04:53;96310.50;;;8.40;100.00
7824;BME280;3957;48.61947800;9.05303100;2023-04-30T03:05:54;96307.16;;;8.38;100.00
7824;BME280;3957;48.61947800;9.05303100;2023-04-30T03:06:59;96315.44;;;8.43;100.00
7824;BME280;3957;48.61947800;9.05303100;2023-04-30T03:08:01;96302.03;;;8.37;100.00
7824;BME280;3957;48.61947800;9.05303100;2023-04-30T03:09:02;96307.16;;;8.38;100.00
7824;BME280;3957;48.61947800;9.05303100;2023-04-30T03:10:05;96302.50;;;8.40;100.00
7824;BME280;3957;48.61947800;9.05303100;2023-04-30T03:11:06;96302.03;;;8.37;100.00
7824;BME280;3957;48.61947800;9.05303100;2023-04-30T03:12:08;96301.19;;;8.36;100.00
7824;BME280;3957;48.61947800;9.05303100;2023-04-30T03:13:10;96304.06;;;8.34;100.00
7824;BME280;3957;48.61947800;9.05303100;2023-04-30T03:14:11;96313.53;;;8.37;100.00
7824;BME280;3957;48.61947800;9.05303100;2023-04-30T03:15:13;96303.31;;;8.41;100.00
7824;BME280;3957;48.61947800;9.05303100;2023-04-30T03:16:14;96311.97;;;8.43;100.00
7824;BME280;3957;48.61947800;9.05303100;2023-04-30T03:17:16;96313.78;;;8.42;100.00
7824;BME280;3957;48.61947800;9.05303100;2023-04-30T03:18:18;96307.44;;;8.43;100.00
7824;BME280;3957;48.61947800;9.05303100;2023-04-30T03:19:19;96303.31;;;8.41;100.00
7824;BME280;3957;48.61947800;9.05303100;2023-04-30T03:20:25;96310.88;;;8.37;100.00
7824;BME280;3957;48.61947800;9.05303100;2023-04-30T03:21:26;96301.81;;;8.38;100.00
7824;BME280;3957;48.61947800;9.05303100;2023-04-30T03:22:29;96298.44;;;8.29;100.00
7824;BME280;3957;48.61947800;9.05303100;2023-04-30T03:23:30;96306.44;;;8.29;100.00
7824;BME280;3957;48.61947800;9.05303100;2023-04-30T03:24:32;96296.97;;;8.27;100.00
7824;BME280;3957;48.61947800;9.05303100;2023-04-30T03:25:34;96300.00;;;8.24;100.00
7824;BME280;3957;48.61947800;9.05303100;2023-04-30T03:26:35;96293.84;;;8.23;100.00
7824;BME280;3957;48.61947800;9.05303100;2023-04-30T03:27:37;96299.53;;;8.20;100.00
7824;BME280;3957;48.61947800;9.05303100;2023-04-30T03:28:39;96298.25;;;8.16;100.00
7824;BME280;3957;48.61947800;9.05303100;2023-04-30T03:29:40;96295.97;;;8.13;100.00
7824;BME280;3957;48.61947800;9.05303100;2023-04-30T03:30:42;96294.03;;;8.22;100.00
7824;BME280;3957;48.61947800;9.05303100;2023-04-30T03:31:43;96298.44;;;8.14;100.00
7824;BME280;3957;48.61947800;9.05303100;2023-04-30T03:32:45;96294.47;;;8.10;100.00
7824;BME280;3957;48.61947800;9.05303100;2023-04-30T03:33:47;96297.69;;;8.06;100.00
7824;BME280;3957;48.61947800;9.05303100;2023-04-30T03:34:48;96297.69;;;8.06;100.00
7824;BME280;3957;48.61947800;9.05303100;2023-04-30T03:35:51;96308.06;;;8.00;100.00
7824;BME280;3957;48.61947800;9.05303100;2023-04-30T03:36:52;96302.13;;;7.98;100.00
7824;BME280;3957;48.61947800;9.05303100;2023-04-30T03:37:54;96298.16;;;7.94;100.00
7824;BME280;3957;48.61947800;9.05303100;2023-04-30T03:38:56;96299.97;;;7.94;100.00
7824;BME280;3957;48.61947800;9.05303100;2023-04-30T03:39:57;96293.84;;;7.93;100.00
7824;BME280;3957;48.61947800;9.05303100;2023-04-30T03:41:00;96295.69;;;7.93;100.00
7824;BME280;3957;48.61947800;9.05303100;2023-04-30T03:42:02;96291.97;;;7.94;100.00
7824;BME280;3957;48.61947800;9.05303100;2023-04-30T03:43:04;96297.88;;;7.89;100.00
7824;BME280;3957;48.61947800;9.05303100;2023-04-30T03:44:05;96296.03;;;7.90;100.00
7824;BME280;3957;48.61947800;9.05303100;2023-04-30T03:45:09;96300.34;;;7.91;100.00
7824;BME280;3957;48.61947800;9.05303100;2023-04-30T03:46:11;96294.31;;;7.97;100.00
7824;BME280;3957;48.61947800;9.05303100;2023-04-30T03:47:12;96297.50;;;7.92;100.00
7824;BME280;3957;48.61947800;9.05303100;2023-04-30T03:48:14;96291.25;;;7.85;100.00
7824;BME280;3957;48.61947800;9.05303100;2023-04-30T03:49:16;96290.06;;;7.88;100.00
7824;BME280;3957;48.61947800;9.05303100;2023-04-30T03:50:18;96292.53;;;7.89;100.00
7824;BME280;3957;48.61947800;9.05303100;2023-04-30T03:51:20;96293.19;;;7.91;100.00
7824;BME280;3957;48.61947800;9.05303100;2023-04-30T03:52:22;96297.88;;;7.89;100.00
7824;BME280;3957;48.61947800;9.05303100;2023-04-30T03:53:23;96293.91;;;7.85;100.00
7824;BME280;3957;48.61947800;9.05303100;2023-04-30T03:54:27;96293.72;;;7.87;100.00
7824;BME280;3957;48.61947800;9.05303100;2023-04-30T03:55:29;96292.06;;;7.86;100.00
7824;BME280;3957;48.61947800;9.05303100;2023-04-30T03:56:32;96291.72;;;7.89;100.00
7824;BME280;3957;48.61947800;9.05303100;2023-04-30T03:57:33;96295.50;;;7.94;100.00
7824;BME280;3957;48.61947800;9.05303100;2023-04-30T03:58:35;96294.56;;;8.02;100.00
7824;BME280;3957;48.61947800;9.05303100;2023-04-30T03:59:37;96297.69;;;8.06;100.00
7824;BME280;3957;48.61947800;9.05303100;2023-04-30T04:00:39;96287.59;;;8.01;100.00
7824;BME280;3957;48.61947800;9.05303100;2023-04-30T04:01:42;96290.34;;;8.08;100.00
7824;BME280;3957;48.61947800;9.05303100;2023-04-30T04:02:44;96289.91;;;8.04;100.00
7824;BME280;3957;48.61947800;9.05303100;2023-04-30T04:03:45;96285.38;;;8.05;100.00
7824;BME280;3957;48.61947800;9.05303100;2023-04-30T04:04:47;96287.13;;;7.97;100.00
7824;BME280;3957;48.61947800;9.05303100;2023-04-30T04:05:50;96288.03;;;7.90;100.00
7824;BME280;3957;48.61947800;9.05303100;2023-04-30T04:06:52;96293.34;;;7.90;100.00
7824;BME280;3957;48.61947800;9.05303100;2023-04-30T04:07:54;96290.25;;;8.01;100.00
7824;BME280;3957;48.61947800;9.05303100;2023-04-30T04:08:56;96292.09;;;8.00;100.00
7824;BME280;3957;48.61947800;9.05303100;2023-04-30T04:09:57;96288.88;;;7.90;100.00
7824;BME280;3957;48.61947800;9.05303100;2023-04-30T04:11:00;96291.34;;;7.92;100.00
7824;BME280;3957;48.61947800;9.05303100;2023-04-30T04:12:02;96285.94;;;8.00;100.00
7824;BME280;3957;48.61947800;9.05303100;2023-04-30T04:13:04;96292.81;;;7.94;100.00
7824;BME280;3957;48.61947800;9.05303100;2023-04-30T04:14:08;96298.16;;;7.94;100.00
7824;BME280;3957;48.61947800;9.05303100;2023-04-30T04:15:09;96294.19;;;7.90;100.00
7824;BME280;3957;48.61947800;9.05303100;2023-04-30T04:16:11;96298.97;;;7.95;100.00
7824;BME280;3957;48.61947800;9.05303100;2023-04-30T04:17:13;96296.13;;;7.96;100.00
7824;BME280;3957;48.61947800;9.05303100;2023-04-30T04:18:16;96292.63;;;7.96;100.00
7824;BME280;3957;48.61947800;9.05303100;2023-04-30T04:19:18;96300.63;;;7.96;100.00
7824;BME280;3957;48.61947800;9.05303100;2023-04-30T04:20:21;96292.81;;;7.94;100.00
7824;BME280;3957;48.61947800;9.05303100;2023-04-30T04:21:22;96298.97;;;7.95;100.00
7824;BME280;3957;48.61947800;9.05303100;2023-04-30T04:22:24;96300.72;;;7.88;100.00
7824;BME280;3957;48.61947800;9.05303100;2023-04-30T04:23:25;96297.25;;;7.87;100.00
7824;BME280;3957;48.61947800;9.05303100;2023-04-30T04:24:27;96305.22;;;7.87;100.00
7824;BME280;3957;48.61947800;9.05303100;2023-04-30T04:25:28;96304.56;;;7.85;100.00
7824;BME280;3957;48.61947800;9.05303100;2023-04-30T04:26:30;96305.22;;;7.87;100.00
7824;BME280;3957;48.61947800;9.05303100;2023-04-30T04:27:32;96308.34;;;7.91;100.00
7824;BME280;3957;48.61947800;9.05303100;2023-04-30T04:28:33;96306.53;;;7.91;100.00
7824;BME280;3957;48.61947800;9.05303100;2023-04-30T04:29:35;96300.53;;;7.89;100.00
7824;BME280;3957;48.61947800;9.05303100;2023-04-30T04:30:37;96305.69;;;7.91;100.00
7824;BME280;3957;48.61947800;9.05303100;2023-04-30T04:31:40;96307.16;;;7.93;100.00
7824;BME280;3957;48.61947800;9.05303100;2023-04-30T04:32:44;96304.31;;;7.95;100.00
7824;BME280;3957;48.61947800;9.05303100;2023-04-30T04:33:50;96309.53;;;7.88;100.00
7824;BME280;3957;48.61947800;9.05303100;2023-04-30T04:34:58;96312.19;;;7.88;100.00
7824;BME280;3957;48.61947800;9.05303100;2023-04-30T04:36:00;96309.06;;;7.99;100.00
7824;BME280;3957;48.61947800;9.05303100;2023-04-30T04:37:01;96309.72;;;8.02;100.00
7824;BME280;3957;48.61947800;9.05303100;2023-04-30T04:38:04;96314.06;;;8.03;100.00
7824;BME280;3957;48.61947800;9.05303100;2023-04-30T04:39:06;96311.84;;;8.06;100.00
7824;BME280;3957;48.61947800;9.05303100;2023-04-30T04:40:09;96312.13;;;8.11;100.00
7824;BME280;3957;48.61947800;9.05303100;2023-04-30T04:41:13;96309.56;;;8.18;100.00
7824;BME280;3957;48.61947800;9.05303100;2023-04-30T04:42:15;96310.28;;;8.12;100.00
7824;BME280;3957;48.61947800;9.05303100;2023-04-30T04:43:20;96314.81;;;8.11;100.00
7824;BME280;3957;48.61947800;9.05303100;2023-04-30T04:44:22;96318.94;;;8.14;100.00
7824;BME280;3957;48.61947800;9.05303100;2023-04-30T04:45:23;96319.28;;;8.26;100.00
7824;BME280;3957;48.61947800;9.05303100;2023-04-30T04:46:25;96317.00;;;8.23;100.00
7824;BME280;3957;48.61947800;9.05303100;2023-04-30T04:47:27;96318.09;;;8.28;100.00
7824;BME280;3957;48.61947800;9.05303100;2023-04-30T04:48:28;96322.63;;;8.28;100.00
7824;BME280;3957;48.61947800;9.05303100;2023-04-30T04:49:30;96324.38;;;8.36;100.00
7824;BME280;3957;48.61947800;9.05303100;2023-04-30T04:50:31;96328.50;;;8.38;100.00
7824;BME280;3957;48.61947800;9.05303100;2023-04-30T04:51:33;96322.81;;;8.41;100.00
7824;BME280;3957;48.61947800;9.05303100;2023-04-30T04:52:34;96322.09;;;8.47;100.00
7824;BME280;3957;48.61947800;9.05303100;2023-04-30T04:53:37;96320.72;;;8.51;100.00
7824;BME280;3957;48.61947800;9.05303100;2023-04-30T04:54:38;96316.03;;;8.54;100.00
7824;BME280;3957;48.61947800;9.05303100;2023-04-30T04:55:40;96318.91;;;8.52;100.00
7824;BME280;3957;48.61947800;9.05303100;2023-04-30T04:56:41;96322.84;;;8.56;100.00
7824;BME280;3957;48.61947800;9.05303100;2023-04-30T04:57:43;96312.53;;;8.53;100.00
7824;BME280;3957;48.61947800;9.05303100;2023-04-30T04:58:44;96318.13;;;8.58;100.00
7824;BME280;3957;48.61947800;9.05303100;2023-04-30T04:59:46;96314.00;;;8.56;100.00
7824;BME280;3957;48.61947800;9.05303100;2023-04-30T05:00:48;96314.00;;;8.56;100.00
7824;BME280;3957;48.61947800;9.05303100;2023-04-30T05:01:49;96316.47;;;8.57;100.00
7824;BME280;3957;48.61947800;9.05303100;2023-04-30T05:02:51;96324.47;;;8.57;100.00
7824;BME280;3957;48.61947800;9.05303100;2023-04-30T05:03:54;96320.34;;;8.55;100.00
7824;BME280;3957;48.61947800;9.05303100;2023-04-30T05:04:55;96319.59;;;8.76;100.00
7824;BME280;3957;48.61947800;9.05303100;2023-04-30T05:05:57;96314.19;;;8.69;100.00
7824;BME280;3957;48.61947800;9.05303100;2023-04-30T05:06:59;96320.31;;;8.84;100.00
7824;BME280;3957;48.61947800;9.05303100;2023-04-30T05:08:01;96314.41;;;8.89;100.00
7824;BME280;3957;48.61947800;9.05303100;2023-04-30T05:09:04;96311.38;;;8.92;100.00
7824;BME280;3957;48.61947800;9.05303100;2023-04-30T05:10:09;96320.72;;;9.03;100.00
7824;BME280;3957;48.61947800;9.05303100;2023-04-30T05:11:11;96318.78;;;9.12;100.00
7824;BME280;3957;48.61947800;9.05303100;2023-04-30T05:12:15;96323.69;;;9.30;100.00
7824;BME280;3957;48.61947800;9.05303100;2023-04-30T05:13:17;96320.31;;;9.21;100.00
7824;BME280;3957;48.61947800;9.05303100;2023-04-30T05:14:19;96322.56;;;9.39;100.00
7824;BME280;3957;48.61947800;9.05303100;2023-04-30T05:15:21;96319.75;;;9.47;100.00
7824;BME280;3957;48.61947800;9.05303100;2023-04-30T05:16:22;96324.13;;;9.55;100.00